Flight Track Log - Related Links

Times and Time Zones

All times are in EDT time to prevent confusion due to time zone crossing. See the EGF3681 flight status page for this flight to view local times or setup timezone preferences in your user account.

Time Position Orientation Groundspeed Altitude Reporting Facility
EDT Latitude Longitude Course Direction KTS MPH feet Rate Location/Type
Wed 10:48:41 PM 41.9167 -87.9000 95° East 211 243 3,100  Level Chicago TRACON
Wed 10:49:20 PM 41.8933 -87.8500 122° Southeast 240 276 4,300 1,140 Climbing Chicago Center
Wed 10:50:00 PM 41.9652 -87.5183 98° East  Level FlightAware Approximate
Wed 10:50:21 PM 41.8631 -87.7639 115° Southeast 247 284 5,000  Level Chicago Center
Wed 10:51:00 PM 41.9526 -87.3922 98° East  Level FlightAware Approximate
Wed 10:51:22 PM 41.8850 -87.6661 73° East 280 322 6,200  Level Chicago Center
Wed 10:52:00 PM 41.9428 -87.2656 95° East  Level FlightAware Approximate
Wed 10:52:24 PM 41.9186 -87.5703 65° Northeast 285 328 8,700  Level Chicago Center
Wed 10:53:00 PM 41.9341 -87.1439 95° East  Level FlightAware Approximate
Wed 10:53:25 PM 41.9431 -87.4672 72° East 292 336 10,800  Level Chicago Center
Wed 10:54:26 PM 41.9417 -87.3528 91° East 306 352 12,900 2,016 Climbing Chicago Center
Wed 10:55:27 PM 41.9431 -87.2108 89° East 320 368 14,900 1,967 Climbing Chicago Center
Wed 10:56:28 PM 41.9439 -87.0900 89° East 325 374 16,900 1,024 Climbing Chicago Center
Wed 10:57:30 PM 41.9458 -86.9556 89° East 371 427 17,000 49 Climbing Chicago Center
Wed 10:58:31 PM 41.9308 -86.8111 98° East 394 453 17,000 344 Level Chicago Center
Wed 10:59:32 PM 41.9097 -86.6653 101° East 411 473 17,700 1,279 Climbing Chicago Center
Wed 11:00:33 PM 41.8908 -86.5189 100° East 403 464 19,600 1,610 Climbing Chicago Center
Wed 11:01:35 PM 41.8706 -86.3794 101° East 386 444 21,000 1,122 Climbing Chicago Center
Wed 11:02:36 PM 41.8483 -86.2328 101° East 401 461 21,900 492 Climbing Chicago Center
Wed 11:03:37 PM 41.7578 -86.0969 132° Southeast 411 473 22,000 49 Climbing Chicago Center
Wed 11:04:38 PM 41.6767 -85.9819 133° Southeast 427 491 22,000  Level Chicago Center
Wed 11:05:40 PM 41.5942 -85.8633 133° Southeast 437 503 22,000 341 Level Chicago Center
Wed 11:06:41 PM 41.5139 -85.7472 133° Southeast 432 497 22,700 492 Climbing Chicago Center
Wed 11:07:42 PM 41.4328 -85.6339 134° Southeast 429 494 23,000 148 Climbing Chicago Center
Wed 11:08:43 PM 41.3517 -85.5139 132° Southeast 441 507 23,000  Level Chicago Center
Wed 11:09:45 PM 41.2661 -85.3928 133° Southeast 451 519 23,000 -244 Level Chicago Center
Wed 11:10:46 PM 41.1656 -85.2508 133° Southeast 447 514 22,500 -689 Descending Chicago Center
Wed 11:11:47 PM 41.0847 -85.1367 133° Southeast 434 499 21,600 -927 Descending Chicago Center
Wed 11:12:49 PM 41.0047 -85.0253 134° Southeast 423 487 20,600 -927 Descending Chicago Center
Wed 11:13:50 PM 40.9267 -84.9164 133° Southeast 414 476 19,700 -982 Descending Chicago Center
Wed 11:14:39 PM 40.8589 -84.8239 134° Southeast 400 460 18,800 -1,036 Descending Indianapolis Center
Wed 11:15:40 PM 40.7819 -84.7192 134° Southeast 399 459 17,800 -878 Descending Indianapolis Center
Wed 11:16:42 PM 40.7058 -84.6119 133° Southeast 392 451 17,000 -878 Descending Indianapolis Center
Wed 11:17:43 PM 40.6294 -84.5092 134° Southeast 390 449 16,000 -934 Descending Indianapolis Center
Wed 11:18:44 PM 40.5456 -84.4272 143° Southeast 379 436 15,100 -1,171 Descending Indianapolis Center
Wed 11:19:46 PM 40.4486 -84.3794 159° South 373 429 13,600 -1,689 Descending Indianapolis Center
Wed 11:20:59 PM 40.3333 -84.3206 159° South 341 392 11,300 -1,574 Descending Indianapolis Center
Wed 11:21:48 PM 40.2789 -84.2914 158° South 303 349 10,400 -1,514 Descending Indianapolis Center
Wed 11:22:50 PM 40.2103 -84.2572 159° South 271 312 8,500 -2,049 Descending Indianapolis Center
Wed 11:23:51 PM 40.1442 -84.2228 158° South 258 297 6,200 -2,262 Descending Indianapolis Center

Login

Don't have an account? Register now (free) for customized features, flight alerts, and more!